Time;durP1;ratioP1;P1;durP2;ratioP2;P2;SDS_P1;SDS_P2;PMS_P1;PMS_P2;Temp;Humidity;BMP_temperature;BMP_pressure;BME280_temperature;BME280_humidity;BME280_pressure;Samples;Min_cycle;Max_cycle;Signal;HPM_P1;HPM_P2
2022/05/13 00:01:09;;;;;;;4.40;2.38;;;14.50;99.90;;;;;;4967669;28;20027;-59
2022/05/13 00:03:37;;;;;;;5.40;2.97;;;14.60;99.90;;;;;;4961185;28;20069;-58
2022/05/13 00:06:03;;;;;;;9.35;2.65;;;14.60;99.90;;;;;;4962324;28;20094;-59
2022/05/13 00:08:29;;;;;;;4.75;3.05;;;14.60;99.90;;;;;;4962728;28;20046;-59
2022/05/13 00:10:57;;;;;;;4.53;2.40;;;14.60;99.90;;;;;;4961350;28;20670;-58
2022/05/13 00:13:23;;;;;;;4.03;2.65;;;14.60;99.90;;;;;;4966018;28;20038;-58
2022/05/13 00:15:49;;;;;;;5.45;2.50;;;14.60;99.90;;;;;;4960663;28;20399;-59
2022/05/13 00:18:16;;;;;;;6.57;2.67;;;14.60;99.90;;;;;;4964737;28;20022;-58
2022/05/13 00:20:42;;;;;;;2.30;2.05;;;14.60;99.90;;;;;;4988520;28;20038;-58
2022/05/13 00:23:08;;;;;;;5.00;2.50;;;14.60;99.90;;;;;;4983972;28;20513;-58
2022/05/13 00:25:36;;;;;;;4.65;2.53;;;14.50;99.90;;;;;;4979456;28;20041;-58
2022/05/13 00:28:07;;;;;;;5.07;2.65;;;14.50;99.90;;;;;;4984454;28;20031;-58
2022/05/13 00:30:38;;;;;;;6.40;2.38;;;14.50;99.90;;;;;;4987627;28;20481;-59
2022/05/13 00:33:04;;;;;;;4.25;2.38;;;14.50;99.90;;;;;;4972473;28;20038;-58
2022/05/13 00:35:30;;;;;;;4.95;2.78;;;14.50;99.90;;;;;;4983786;28;20045;-58
2022/05/13 00:37:56;;;;;;;5.97;2.80;;;14.40;99.90;;;;;;4983978;28;20030;-58
2022/05/13 00:40:22;;;;;;;3.03;2.33;;;14.40;99.90;;;;;;4985542;28;20048;-58
2022/05/13 00:42:49;;;;;;;4.30;2.38;;;14.40;99.90;;;;;;4978435;28;20022;-58
2022/05/13 00:45:16;;;;;;;5.15;2.80;;;14.40;99.90;;;;;;4979990;28;20050;-58
2022/05/13 00:47:43;;;;;;;5.80;3.00;;;14.40;99.90;;;;;;4965538;28;20039;-59
2022/05/13 00:50:11;;;;;;;3.17;2.70;;;14.40;99.90;;;;;;4983098;28;20057;-60
2022/05/13 00:52:40;;;;;;;5.63;2.42;;;14.40;99.90;;;;;;4980119;28;20810;-60
2022/05/13 00:55:11;;;;;;;4.85;3.20;;;14.40;99.90;;;;;;4980638;28;20036;-60
2022/05/13 00:57:39;;;;;;;7.57;2.63;;;14.30;99.90;;;;;;4976155;28;20049;-62
2022/05/13 01:00:11;;;;;;;7.60;2.97;;;14.30;99.90;;;;;;4983067;28;20261;-59
2022/05/13 01:02:37;;;;;;;3.38;2.70;;;14.30;99.90;;;;;;4984890;28;20118;-60
2022/05/13 01:05:05;;;;;;;10.65;2.97;;;14.20;99.90;;;;;;4979116;28;20561;-60
2022/05/13 01:07:31;;;;;;;5.85;2.67;;;14.20;99.90;;;;;;4983361;28;20298;-60
2022/05/13 01:10:01;;;;;;;6.47;3.10;;;14.20;99.90;;;;;;4987427;28;20022;-62
2022/05/13 01:12:35;;;;;;;7.85;3.00;;;14.10;99.90;;;;;;4983134;28;20453;-60
2022/05/13 01:15:08;;;;;;;4.72;2.85;;;14.10;99.90;;;;;;4977212;28;20402;-61
2022/05/13 01:20:48;;;;;;;4.57;3.05;;;13.90;99.90;;;;;;4985045;28;20033;-60
2022/05/13 01:23:19;;;;;;;8.45;3.10;;;13.90;99.90;;;;;;4981146;28;20430;-62
2022/05/13 01:25:46;;;;;;;;;;;13.80;99.90;;;;;;4962829;28;20058;-59
2022/05/13 01:28:25;;;;;;;4.68;2.35;;;13.80;99.90;;;;;;4983797;28;19980;-60
2022/05/13 01:30:55;;;;;;;4.85;2.50;;;13.70;99.90;;;;;;4980053;28;20501;-60
2022/05/13 01:33:21;;;;;;;6.13;2.92;;;13.60;99.90;;;;;;4981688;28;20031;-60
2022/05/13 01:35:50;;;;;;;9.05;3.63;;;13.60;99.90;;;;;;4979015;28;20035;-59
2022/05/13 01:38:18;;;;;;;2.88;2.67;;;13.50;99.90;;;;;;4980667;28;20031;-61
2022/05/13 01:40:44;;;;;;;3.67;3.20;;;13.50;99.90;;;;;;4982769;28;20165;-60
2022/05/13 01:43:10;;;;;;;7.88;3.13;;;13.50;99.90;;;;;;4983529;28;20106;-60
2022/05/13 01:45:37;;;;;;;6.50;3.10;;;13.40;99.90;;;;;;4978007;28;20483;-60
2022/05/13 01:48:04;;;;;;;4.05;2.45;;;13.40;99.90;;;;;;4984606;28;20026;-61
2022/05/13 01:50:29;;;;;;;3.45;2.90;;;13.40;99.90;;;;;;4982589;28;20043;-60
2022/05/13 01:52:55;;;;;;;4.35;2.58;;;13.40;99.90;;;;;;4983070;28;20057;-60
2022/05/13 01:55:22;;;;;;;5.90;3.20;;;13.30;99.90;;;;;;4980313;28;20393;-61
2022/05/13 01:57:48;;;;;;;3.63;3.10;;;13.30;99.90;;;;;;4981942;28;20037;-59
2022/05/13 02:00:15;;;;;;;6.00;3.20;;;13.30;99.90;;;;;;4975732;28;20385;-60
2022/05/13 02:05:25;;;;;;;8.10;3.95;;;13.20;99.90;;;;;;4981355;28;20045;-60
2022/05/13 02:07:51;;;;;;;5.97;2.42;;;13.10;99.90;;;;;;4983769;28;20030;-60
2022/05/13 02:10:17;;;;;;;3.63;2.97;;;13.10;99.90;;;;;;4982259;28;20035;-59
2022/05/13 02:12:42;;;;;;;5.03;2.80;;;13.00;99.90;;;;;;4984733;28;20513;-60
2022/05/13 02:15:08;;;;;;;5.40;2.72;;;13.00;99.90;;;;;;4985836;28;20025;-60
2022/05/13 02:17:34;;;;;;;9.77;3.03;;;12.90;99.90;;;;;;4978647;28;20598;-60
2022/05/13 02:20:00;;;;;;;5.47;3.25;;;12.90;99.90;;;;;;4981834;28;20034;-60
2022/05/13 02:22:26;;;;;;;4.22;2.83;;;12.90;99.90;;;;;;4981825;28;20051;-61
2022/05/13 02:24:51;;;;;;;3.13;2.83;;;12.90;99.90;;;;;;4977689;28;20027;-59
2022/05/13 02:27:17;;;;;;;6.20;2.63;;;12.90;99.90;;;;;;4981880;28;20037;-60
2022/05/13 02:29:42;;;;;;;8.73;3.63;;;12.90;99.90;;;;;;4958895;28;20042;-61
2022/05/13 02:32:08;;;;;;;4.45;3.38;;;12.90;99.90;;;;;;4979305;28;20502;-61
2022/05/13 02:34:36;;;;;;;5.63;3.10;;;12.80;99.90;;;;;;4975635;28;20039;-60
2022/05/13 02:37:03;;;;;;;8.52;2.85;;;12.80;99.90;;;;;;4975268;28;20027;-59
2022/05/13 02:39:29;;;;;;;6.15;3.13;;;12.80;99.90;;;;;;4981097;28;20193;-61
2022/05/13 02:41:55;;;;;;;4.13;3.47;;;12.70;99.90;;;;;;4971459;28;20026;-60
2022/05/13 02:44:21;;;;;;;3.65;3.33;;;12.70;99.90;;;;;;4979764;28;20493;-60
2022/05/13 02:46:47;;;;;;;3.75;3.15;;;12.70;99.90;;;;;;4981597;28;20046;-60
2022/05/13 02:49:14;;;;;;;4.78;2.88;;;12.70;99.90;;;;;;4983869;28;20026;-60
2022/05/13 02:51:40;;;;;;;5.75;3.58;;;12.60;99.90;;;;;;4982062;28;20085;-59
2022/05/13 02:54:07;;;;;;;5.15;3.55;;;12.60;99.90;;;;;;4988466;28;20022;-60
2022/05/13 02:56:33;;;;;;;4.28;3.00;;;12.60;99.90;;;;;;4985008;28;20160;-59
2022/05/13 02:58:59;;;;;;;5.50;3.28;;;12.60;99.90;;;;;;4982181;28;20026;-59
2022/05/13 03:01:25;;;;;;;3.85;3.20;;;12.50;99.90;;;;;;4987568;28;20064;-60
2022/05/13 03:03:50;;;;;;;5.13;3.40;;;12.40;99.90;;;;;;4980201;28;20162;-60
2022/05/13 03:06:18;;;;;;;6.38;4.53;;;12.40;99.90;;;;;;4984146;28;20037;-59
2022/05/13 03:08:44;;;;;;;7.93;3.78;;;12.30;99.90;;;;;;4985451;28;20043;-60
2022/05/13 03:11:10;;;;;;;5.07;3.08;;;12.30;99.90;;;;;;4987396;28;20632;-60
2022/05/13 03:13:37;;;;;;;5.80;3.63;;;12.20;99.90;;;;;;4977878;28;20504;-60
2022/05/13 03:16:08;;;;;;;8.90;3.92;;;12.20;99.90;;;;;;4982479;28;20134;-61
2022/05/13 03:18:34;;;;;;;7.85;3.38;;;12.20;99.90;;;;;;4973660;28;20089;-60
2022/05/13 03:21:00;;;;;;;5.60;3.33;;;12.20;99.90;;;;;;4987602;28;20037;-59
2022/05/13 03:23:26;;;;;;;4.40;3.38;;;12.10;99.90;;;;;;4980623;28;20031;-60
2022/05/13 03:25:52;;;;;;;3.90;3.50;;;12.10;99.90;;;;;;4981311;28;20038;-59
2022/05/13 03:28:18;;;;;;;5.10;3.60;;;12.00;99.90;;;;;;4979591;28;20394;-60
2022/05/13 03:30:44;;;;;;;4.22;3.83;;;12.00;99.90;;;;;;4979837;28;20026;-61
2022/05/13 03:33:10;;;;;;;5.10;3.15;;;11.90;99.90;;;;;;4986709;28;20033;-60
2022/05/13 03:35:35;;;;;;;7.32;3.20;;;11.90;99.90;;;;;;4985031;28;20350;-61
2022/05/13 03:38:01;;;;;;;8.93;3.38;;;11.90;99.90;;;;;;4982637;28;20026;-60
2022/05/13 03:40:27;;;;;;;6.20;4.40;;;11.90;99.90;;;;;;4985049;28;20441;-60
2022/05/13 03:42:52;;;;;;;5.50;3.75;;;11.80;99.90;;;;;;4985192;28;20026;-59
2022/05/13 03:45:19;;;;;;;7.82;4.00;;;11.80;99.90;;;;;;4982475;28;20034;-61
2022/05/13 03:47:45;;;;;;;9.80;4.22;;;11.80;99.90;;;;;;4980872;28;20054;-60
2022/05/13 03:50:12;;;;;;;4.00;3.60;;;11.80;99.90;;;;;;4985720;28;20031;-60
2022/05/13 03:52:38;;;;;;;6.20;3.45;;;11.80;99.90;;;;;;4985435;28;20038;-60
2022/05/13 03:55:06;;;;;;;5.32;4.05;;;11.80;99.90;;;;;;4983340;28;20050;-60
2022/05/13 03:57:32;;;;;;;4.72;3.45;;;11.80;99.90;;;;;;4980821;28;20022;-60
2022/05/13 03:59:58;;;;;;;5.70;3.60;;;11.80;99.90;;;;;;4983577;28;20121;-61
2022/05/13 04:02:25;;;;;;;3.72;3.42;;;11.80;99.90;;;;;;4982590;28;20043;-60
2022/05/13 04:10:19;;;;;;;4.78;3.72;;;11.90;99.90;;;;;;4980997;28;20042;-61
2022/05/13 04:18:13;;;;;;;7.97;4.20;;;12.10;99.90;;;;;;4955662;28;20101;-60
2022/05/13 04:20:39;;;;;;;6.05;3.90;;;12.20;99.90;;;;;;4983518;28;20474;-61
2022/05/13 04:23:05;;;;;;;7.40;3.75;;;12.30;99.90;;;;;;4987206;28;20065;-61
2022/05/13 04:25:30;;;;;;;8.88;4.25;;;12.40;99.90;;;;;;4985496;28;20050;-60
2022/05/13 04:27:56;;;;;;;7.80;4.13;;;12.50;99.90;;;;;;4978527;28;20080;-60
2022/05/13 04:30:22;;;;;;;11.38;4.28;;;12.60;99.90;;;;;;4982474;28;20030;-60
2022/05/13 04:32:47;;;;;;;6.55;4.05;;;12.70;99.90;;;;;;4973414;28;20030;-61
2022/05/13 04:35:13;;;;;;;4.50;3.75;;;12.80;99.90;;;;;;4982999;28;20026;-61
2022/05/13 04:37:39;;;;;;;7.40;3.28;;;12.90;99.90;;;;;;4984210;28;20073;-60
2022/05/13 04:40:05;;;;;;;6.50;3.60;;;13.00;99.90;;;;;;4983178;28;20026;-60
2022/05/13 04:42:49;;;;;;;5.55;3.70;;;13.00;99.90;;;;;;4980395;28;20018;-60
2022/05/13 04:45:33;;;;;;;5.55;2.95;;;13.10;99.90;;;;;;4984019;28;20519;-60
2022/05/13 04:48:17;;;;;;;4.03;3.65;;;13.10;99.90;;;;;;4983409;28;20058;-60
2022/05/13 04:50:54;;;;;;;4.13;3.05;;;13.20;99.90;;;;;;4981243;28;20081;-60
2022/05/13 04:53:26;;;;;;;6.60;3.72;;;13.30;99.90;;;;;;4971219;28;20050;-60
2022/05/13 04:55:54;;;;;;;6.30;3.60;;;13.40;99.90;;;;;;4978898;28;20046;-60
2022/05/13 04:58:21;;;;;;;5.78;4.43;;;13.40;99.90;;;;;;4979483;28;20026;-60
2022/05/13 05:00:50;;;;;;;10.82;4.57;;;13.60;99.90;;;;;;4982856;28;20030;-60
2022/05/13 05:03:17;;;;;;;6.90;4.40;;;13.70;99.90;;;;;;4988154;28;20030;-60
2022/05/13 05:05:43;;;;;;;7.25;3.92;;;14.10;99.90;;;;;;4969543;28;20049;-61
2022/05/13 05:08:12;;;;;;;17.58;3.17;;;15.10;99.90;;;;;;4979087;28;20038;-61
2022/05/13 05:10:39;;;;;;;7.57;2.60;;;16.50;99.90;;;;;;4982112;28;20038;-61
2022/05/13 05:13:07;;;;;;;5.43;2.80;;;18.10;99.90;;;;;;4985363;28;20042;-61
2022/05/13 05:15:34;;;;;;;9.90;2.42;;;19.60;98.00;;;;;;4979389;28;20035;-61
2022/05/13 05:17:59;;;;;;;4.30;2.30;;;20.90;92.00;;;;;;4983834;28;20102;-59
2022/05/13 05:20:25;;;;;;;9.45;2.97;;;22.10;85.90;;;;;;4979307;28;20110;-59
2022/05/13 05:22:51;;;;;;;8.88;2.63;;;22.60;78.70;;;;;;4981132;28;20031;-59
2022/05/13 05:25:18;;;;;;;8.40;2.75;;;23.40;74.50;;;;;;4979453;28;20126;-59
2022/05/13 05:27:44;;;;;;;6.10;2.67;;;24.20;69.90;;;;;;4983433;28;20050;-59
2022/05/13 05:30:11;;;;;;;7.93;2.50;;;24.10;68.80;;;;;;4979238;28;20060;-59
2022/05/13 05:32:39;;;;;;;5.22;2.40;;;24.40;66.50;;;;;;4983285;28;20045;-59
2022/05/13 05:35:07;;;;;;;6.30;2.25;;;25.00;65.40;;;;;;4985733;28;20113;-59
2022/05/13 05:37:33;;;;;;;5.20;2.20;;;25.60;62.30;;;;;;4969856;28;20149;-60
2022/05/13 05:39:59;;;;;;;7.68;2.50;;;25.80;62.30;;;;;;4962282;28;20110;-59
2022/05/13 05:42:24;;;;;;;5.45;1.80;;;26.20;61.10;;;;;;4984785;28;20068;-59
2022/05/13 05:44:50;;;;;;;4.82;2.20;;;26.50;58.90;;;;;;4980680;28;20547;-59
2022/05/13 05:47:16;;;;;;;3.47;1.73;;;26.70;58.50;;;;;;4982349;28;20031;-60
2022/05/13 05:49:42;;;;;;;7.75;1.75;;;26.80;57.60;;;;;;4979707;28;20034;-60
2022/05/13 05:52:09;;;;;;;2.70;1.55;;;26.90;57.50;;;;;;4983521;28;20072;-59
2022/05/13 05:57:22;;;;;;;3.00;1.42;;;27.40;56.20;;;;;;4978738;28;20037;-59
2022/05/13 05:59:48;;;;;;;3.13;1.65;;;26.70;55.30;;;;;;4981450;28;20034;-60
2022/05/13 06:02:14;;;;;;;2.13;1.33;;;27.10;55.20;;;;;;4983469;28;20073;-60
2022/05/13 06:04:40;;;;;;;5.65;1.35;;;27.30;55.20;;;;;;4980347;28;20077;-60
2022/05/13 06:07:09;;;;;;;9.07;1.70;;;27.60;54.90;;;;;;4983347;28;20114;-60
2022/05/13 06:09:36;;;;;;;4.22;1.55;;;27.90;53.70;;;;;;4978899;28;20161;-60
2022/05/13 06:12:02;;;;;;;3.17;1.40;;;27.80;53.70;;;;;;4979924;28;20018;-59
2022/05/13 06:14:28;;;;;;;4.38;1.52;;;28.00;53.50;;;;;;4984109;28;20425;-60
2022/05/13 06:16:54;;;;;;;4.05;1.55;;;28.30;53.00;;;;;;4978532;28;20030;-60
2022/05/13 06:19:20;;;;;;;3.60;1.50;;;28.70;51.90;;;;;;4977054;28;20043;-60
2022/05/13 06:21:45;;;;;;;2.33;1.23;;;28.70;51.70;;;;;;4982498;28;20027;-59
2022/05/13 06:24:12;;;;;;;2.30;1.27;;;28.70;51.30;;;;;;4986009;28;20055;-60
2022/05/13 06:26:38;;;;;;;5.72;1.48;;;28.70;51.20;;;;;;4980867;28;20027;-60
2022/05/13 06:29:04;;;;;;;6.45;1.70;;;29.20;51.20;;;;;;4976977;28;20085;-60
2022/05/13 06:31:29;;;;;;;4.55;1.30;;;29.40;50.00;;;;;;4981790;28;20046;-60
2022/05/13 06:33:56;;;;;;;3.85;1.48;;;29.20;50.30;;;;;;4982346;28;20093;-60
2022/05/13 06:36:21;;;;;;;2.55;1.38;;;29.50;49.80;;;;;;4980709;28;20058;-60
2022/05/13 06:38:47;;;;;;;4.47;1.77;;;29.50;50.20;;;;;;4979290;28;20062;-60
2022/05/13 06:41:13;;;;;;;2.30;1.42;;;29.70;49.50;;;;;;4978667;28;20370;-60
2022/05/13 06:43:39;;;;;;;1.98;1.23;;;30.30;48.50;;;;;;4977930;28;20585;-60
2022/05/13 06:46:05;;;;;;;3.45;1.30;;;30.60;48.10;;;;;;4982561;28;20114;-60
2022/05/13 06:48:30;;;;;;;2.25;1.33;;;30.70;46.90;;;;;;4978489;28;20039;-60
2022/05/13 06:50:56;;;;;;;5.10;1.65;;;30.20;46.70;;;;;;4978701;28;20022;-60
2022/05/13 06:53:22;;;;;;;1.88;1.20;;;30.70;46.10;;;;;;4983370;28;20034;-60
2022/05/13 06:55:49;;;;;;;2.63;1.30;;;31.20;46.40;;;;;;4984322;28;20035;-60
2022/05/13 06:58:16;;;;;;;3.55;1.65;;;31.80;45.30;;;;;;4979798;28;20038;-60
2022/05/13 07:00:44;;;;;;;2.42;1.25;;;32.30;44.20;;;;;;4979110;28;20580;-60
2022/05/13 07:03:17;;;;;;;4.30;1.73;;;32.90;43.30;;;;;;4983679;28;20089;-60
2022/05/13 07:05:44;;;;;;;4.57;1.50;;;32.90;42.90;;;;;;4982030;28;20035;-60
2022/05/13 07:08:09;;;;;;;3.10;1.25;;;32.70;42.90;;;;;;4979281;28;20034;-60
2022/05/13 07:10:39;;;;;;;4.32;1.30;;;33.20;42.50;;;;;;4982241;28;20027;-60
2022/05/13 07:13:06;;;;;;;2.70;1.40;;;34.00;41.80;;;;;;4980946;28;20050;-60
2022/05/13 07:15:32;;;;;;;3.78;1.70;;;34.10;40.50;;;;;;4981695;28;20115;-60
2022/05/13 07:17:58;;;;;;;3.42;1.33;;;34.00;39.90;;;;;;4982252;28;20065;-60
2022/05/13 07:20:26;;;;;;;2.47;1.13;;;33.20;40.20;;;;;;4979260;28;20073;-60
2022/05/13 07:22:53;;;;;;;2.88;1.10;;;33.20;40.70;;;;;;4976630;28;20027;-60
2022/05/13 07:25:18;;;;;;;1.98;1.20;;;33.00;41.80;;;;;;4981354;28;20029;-60
2022/05/13 07:27:44;;;;;;;4.50;1.25;;;33.20;40.40;;;;;;4985215;28;20034;-60
2022/05/13 07:30:11;;;;;;;2.47;0.98;;;32.90;37.70;;;;;;4977911;28;20478;-60
2022/05/13 07:32:36;;;;;;;3.00;1.30;;;32.90;39.20;;;;;;4980430;28;20117;-60
2022/05/13 07:35:03;;;;;;;4.82;1.42;;;32.80;38.90;;;;;;4983152;28;20468;-60
2022/05/13 07:37:29;;;;;;;4.25;1.40;;;32.90;37.70;;;;;;4977429;28;20023;-60
2022/05/13 07:42:38;;;;;;;3.80;1.40;;;32.30;38.30;;;;;;4980755;28;20109;-60
2022/05/13 07:45:05;;;;;;;4.22;1.10;;;32.00;38.70;;;;;;4987444;28;20503;-60
2022/05/13 07:47:31;;;;;;;5.88;1.15;;;31.90;38.60;;;;;;4982537;28;20081;-60
2022/05/13 07:49:56;;;;;;;3.40;1.25;;;31.80;39.60;;;;;;4983446;28;20066;-60
2022/05/13 07:52:24;;;;;;;3.35;1.02;;;31.70;39.60;;;;;;4985096;28;20129;-60
2022/05/13 07:54:49;;;;;;;2.20;0.90;;;32.30;40.40;;;;;;4984251;28;20030;-61
2022/05/13 07:57:15;;;;;;;3.33;1.27;;;32.80;40.00;;;;;;4981412;28;20026;-60
2022/05/13 08:02:25;;;;;;;3.42;1.10;;;32.70;38.90;;;;;;4982144;28;20504;-60
2022/05/13 08:04:51;;;;;;;3.30;1.05;;;32.90;38.50;;;;;;4984947;28;20039;-60
2022/05/13 08:07:16;;;;;;;3.78;1.02;;;33.40;37.50;;;;;;4982551;28;20464;-60
2022/05/13 08:09:42;;;;;;;1.75;0.90;;;33.50;38.60;;;;;;4978638;28;20065;-60
2022/05/13 08:12:08;;;;;;;5.43;1.17;;;33.50;38.30;;;;;;4981271;28;20362;-60
2022/05/13 08:14:33;;;;;;;3.40;1.30;;;32.60;38.50;;;;;;4982332;28;20508;-60
2022/05/13 08:16:59;;;;;;;4.30;1.15;;;32.30;39.30;;;;;;4987259;28;20031;-60
2022/05/13 08:19:25;;;;;;;3.15;1.27;;;31.40;40.80;;;;;;4985540;28;20169;-60
2022/05/13 08:21:50;;;;;;;3.42;1.02;;;31.50;40.70;;;;;;4983763;28;20031;-60
2022/05/13 08:24:16;;;;;;;4.00;1.20;;;31.60;40.70;;;;;;4987507;28;20084;-60
2022/05/13 08:26:41;;;;;;;2.03;1.00;;;31.80;40.50;;;;;;4981783;28;20042;-60
2022/05/13 08:29:07;;;;;;;4.30;1.33;;;31.40;39.90;;;;;;4979331;28;20030;-60
2022/05/13 08:31:32;;;;;;;4.90;1.20;;;30.60;42.40;;;;;;4980191;28;20508;-60
2022/05/13 08:33:59;;;;;;;2.33;1.13;;;30.30;41.50;;;;;;4984019;28;20088;-60
2022/05/13 08:36:24;;;;;;;3.67;1.17;;;30.20;42.70;;;;;;4984446;28;20109;-61
2022/05/13 08:38:50;;;;;;;3.40;1.08;;;31.10;42.10;;;;;;4981423;28;20153;-60
2022/05/13 08:42:12;;;;;;;4.25;1.00;;;30.80;41.50;;;;;;4976655;28;20031;-60
2022/05/13 08:44:38;;;;;;;3.10;1.25;;;29.60;42.60;;;;;;4936879;28;20027;-60
2022/05/13 08:47:33;;;;;;;3.42;1.10;;;29.10;44.00;;;;;;4981374;28;20035;-60
2022/05/13 08:50:12;;;;;;;4.13;1.30;;;29.10;43.80;;;;;;4973571;28;20023;-60
2022/05/13 08:53:08;;;;;;;3.80;1.30;;;29.30;43.10;;;;;;4985428;28;20517;-60
2022/05/13 08:56:02;;;;;;;3.88;1.25;;;29.90;42.00;;;;;;4986044;28;20088;-60
2022/05/13 08:58:33;;;;;;;6.38;1.40;;;29.50;42.00;;;;;;4981711;28;20030;-60
2022/05/13 09:01:01;;;;;;;3.47;1.35;;;29.90;42.40;;;;;;4982776;28;20088;-60
2022/05/13 09:03:42;;;;;;;2.88;1.20;;;30.90;41.00;;;;;;4985410;28;21045;-60
2022/05/13 09:06:16;;;;;;;4.75;1.20;;;31.20;40.90;;;;;;4983748;28;20477;-60
2022/05/13 09:08:42;;;;;;;3.75;1.27;;;31.80;41.20;;;;;;4982468;28;20031;-60
2022/05/13 09:11:19;;;;;;;6.70;1.00;;;32.10;38.70;;;;;;4980155;28;20043;-60
2022/05/13 09:13:49;;;;;;;3.13;1.10;;;31.20;39.50;;;;;;4980804;28;20038;-59
2022/05/13 09:16:25;;;;;;;2.75;1.10;;;30.20;41.10;;;;;;4982502;28;20037;-60
2022/05/13 09:19:02;;;;;;;9.88;1.50;;;29.10;43.50;;;;;;4981221;28;20496;-60
2022/05/13 09:21:28;;;;;;;2.58;1.05;;;29.00;44.30;;;;;;4979565;28;20390;-60
2022/05/13 09:23:53;;;;;;;6.50;1.92;;;28.90;43.50;;;;;;4978413;28;20039;-60
2022/05/13 09:26:26;;;;;;;3.88;1.10;;;29.10;44.10;;;;;;4985918;28;20037;-60
2022/05/13 09:29:10;;;;;;;2.65;0.98;;;29.40;44.40;;;;;;4978294;28;20126;-60
2022/05/13 09:32:00;;;;;;;3.47;1.00;;;29.90;43.20;;;;;;4980582;28;20035;-60
2022/05/13 09:34:31;;;;;;;2.60;1.13;;;30.10;42.10;;;;;;4983097;28;20034;-60
2022/05/13 09:37:08;;;;;;;;;;;30.10;42.30;;;;;;4983812;28;20038;-60
2022/05/13 09:39:41;;;;;;;3.80;1.10;;;30.90;42.10;;;;;;4975683;23;19923;-86
2022/05/13 09:42:26;;;;;;;2.97;1.00;;;31.50;42.40;;;;;;4917250;29;20024;-89
2022/05/13 09:45:09;;;;;;;3.92;1.08;;;30.50;41.20;;;;;;4954422;28;20035;-89
2022/05/13 09:47:35;;;;;;;4.50;1.00;;;29.50;42.30;;;;;;4953428;28;20447;-88
2022/05/13 09:50:02;;;;;;;3.33;1.30;;;29.70;43.60;;;;;;4951545;28;20082;-87
2022/05/13 09:52:36;;;;;;;3.55;1.10;;;29.00;43.10;;;;;;4951543;28;20081;-88
2022/05/13 09:55:26;;;;;;;4.30;1.63;;;28.60;44.70;;;;;;4953239;28;20126;-87
2022/05/13 09:57:54;;;;;;;2.35;1.00;;;28.00;45.80;;;;;;4950309;29;20383;-89
2022/05/13 10:00:35;;;;;;;2.80;1.08;;;27.30;46.00;;;;;;4955236;28;20074;-89
2022/05/13 10:03:37;;;;;;;3.05;1.00;;;26.70;48.40;;;;;;4962721;28;20023;-86
2022/05/13 10:06:11;;;;;;;4.03;1.10;;;26.20;46.30;;;;;;4935280;28;20042;-86
2022/05/13 10:14:35;;;;;;;4.75;1.20;;;26.80;47.80;;;;;;4943995;29;20055;-88
2022/05/13 10:17:07;;;;;;;2.97;1.10;;;28.10;46.80;;;;;;4947244;29;20058;-87
2022/05/13 10:19:37;;;;;;;3.47;1.00;;;29.60;44.70;;;;;;4946698;29;20059;-87
2022/05/13 10:22:32;;;;;;;2.70;0.90;;;30.90;42.40;;;;;;4958939;28;20058;-89
2022/05/13 10:25:16;;;;;;;1.77;0.85;;;31.00;41.50;;;;;;4947799;28;20119;-86
2022/05/13 10:27:52;;;;;;;1.98;0.90;;;32.30;40.30;;;;;;4949986;28;20045;-85
2022/05/13 10:30:31;;;;;;;3.25;0.98;;;33.10;38.00;;;;;;4950493;28;20027;-86
2022/05/13 10:33:03;;;;;;;2.67;0.90;;;33.00;39.00;;;;;;4952986;29;20027;-86
2022/05/13 10:36:00;;;;;;;2.28;0.88;;;32.70;38.60;;;;;;4951242;28;20051;-85
2022/05/13 10:38:32;;;;;;;8.80;1.25;;;31.70;38.70;;;;;;4938854;29;20118;-86
2022/05/13 10:41:21;;;;;;;4.78;1.08;;;30.00;40.90;;;;;;4953520;28;20029;-85
2022/05/13 10:43:56;;;;;;;3.10;1.00;;;29.20;44.90;;;;;;4951759;28;20044;-88
2022/05/13 10:46:51;;;;;;;5.70;1.10;;;28.60;44.10;;;;;;4954247;28;20055;-85
2022/05/13 10:49:17;;;;;;;4.45;1.00;;;28.60;44.90;;;;;;4952940;28;20182;-83
2022/05/13 10:51:57;;;;;;;8.65;1.10;;;28.40;45.10;;;;;;4954289;28;20023;-84
2022/05/13 10:54:56;;;;;;;11.27;1.20;;;28.10;44.60;;;;;;4944033;28;20020;-84
2022/05/13 10:57:40;;;;;;;1.60;0.80;;;27.80;44.00;;;;;;4951264;28;20125;-86
2022/05/13 11:00:11;;;;;;;1.52;0.95;;;27.30;44.70;;;;;;4955617;28;20062;-86
2022/05/13 11:03:12;;;;;;;2.25;0.80;;;27.30;48.20;;;;;;4958395;28;20463;-85
2022/05/13 11:05:58;;;;;;;1.35;0.60;;;27.70;45.90;;;;;;4937208;29;20036;-85
2022/05/13 11:08:36;;;;;;;2.53;0.70;;;28.70;47.90;;;;;;4944532;28;20452;-85
2022/05/13 11:11:04;;;;;;;2.60;0.75;;;29.70;41.70;;;;;;4962609;28;20039;-85
2022/05/13 11:14:26;;;;;;;2.55;0.80;;;30.40;41.20;;;;;;4957955;28;20027;-87
2022/05/13 11:17:22;;;;;;;2.45;0.90;;;30.40;41.30;;;;;;4974135;28;20153;-87
2022/05/13 11:19:58;;;;;;;10.00;1.88;;;30.80;42.40;;;;;;4970948;28;20031;-87
2022/05/13 11:22:46;;;;;;;2.97;1.15;;;30.60;41.70;;;;;;4949088;28;20061;-87
2022/05/13 11:25:56;;;;;;;4.28;1.40;;;29.70;42.20;;;;;;4952599;28;20106;-85
2022/05/13 11:28:59;;;;;;;3.85;1.05;;;28.60;43.10;;;;;;4947224;29;20028;-87
2022/05/13 11:31:52;;;;;;;3.30;1.10;;;27.90;46.40;;;;;;4969609;28;20071;-86
2022/05/13 11:34:39;;;;;;;2.00;1.10;;;26.80;46.80;;;;;;4946234;28;20376;-86
2022/05/13 11:37:08;;;;;;;48.33;6.18;;;26.60;49.10;;;;;;4952682;28;20503;-87
2022/05/13 11:39:43;;;;;;;5.15;1.48;;;26.60;49.00;;;;;;4956845;28;20047;-86
2022/05/13 11:42:30;;;;;;;2.33;1.10;;;26.40;48.40;;;;;;4947354;28;20032;-85
2022/05/13 11:45:28;;;;;;;3.67;1.23;;;26.90;47.20;;;;;;4967423;28;20102;-88
2022/05/13 11:47:59;;;;;;;1.70;0.80;;;27.50;45.30;;;;;;4923707;29;20039;-87
2022/05/13 11:50:27;;;;;;;1.83;0.60;;;28.20;44.50;;;;;;4963857;28;20503;-86
2022/05/13 11:52:55;;;;;;;10.27;1.10;;;28.30;44.30;;;;;;4952872;29;20039;-87
2022/05/13 11:55:42;;;;;;;2.97;1.00;;;28.40;43.20;;;;;;4950753;28;20035;-87
2022/05/13 11:58:28;;;;;;;2.70;0.88;;;28.50;44.90;;;;;;4971614;28;20079;-88
2022/05/13 12:00:54;;;;;;;3.72;1.17;;;28.40;43.00;;;;;;4955578;29;20490;-87
2022/05/13 12:03:20;;;;;;;1.35;0.85;;;28.50;44.30;;;;;;4941348;29;20032;-86
2022/05/13 12:06:08;;;;;;;2.92;0.93;;;28.10;44.00;;;;;;4949796;29;20543;-86
2022/05/13 12:08:45;;;;;;;3.28;0.90;;;28.10;46.60;;;;;;4953976;28;20059;-86
2022/05/13 12:11:53;;;;;;;3.22;1.02;;;28.30;45.90;;;;;;4955732;28;20038;-87
2022/05/13 12:14:28;;;;;;;9.10;1.30;;;28.30;43.30;;;;;;4960393;28;20078;-89
2022/05/13 12:17:31;;;;;;;4.70;0.93;;;28.10;43.10;;;;;;4958941;28;20031;-86
2022/05/13 12:20:10;;;;;;;2.90;1.13;;;27.70;44.50;;;;;;4949272;28;20035;-87
2022/05/13 12:22:45;;;;;;;6.65;1.13;;;27.50;44.80;;;;;;4961087;28;20036;-87
2022/05/13 12:25:33;;;;;;;4.82;1.08;;;27.80;43.10;;;;;;4949811;28;20051;-88
2022/05/13 12:28:07;;;;;;;3.85;0.82;;;28.30;43.20;;;;;;4960837;28;20416;-87
2022/05/13 12:30:39;;;;;;;2.00;0.80;;;28.80;41.20;;;;;;4943018;28;20027;-87
2022/05/13 12:33:20;;;;;;;2.80;0.90;;;28.80;40.00;;;;;;4955479;29;20019;-87
2022/05/13 12:39:11;;;;;;;3.80;0.80;;;28.40;41.60;;;;;;4950713;28;20066;-88
2022/05/13 12:41:43;;;;;;;1.80;1.00;;;28.70;43.60;;;;;;4955301;28;20027;-87
2022/05/13 12:44:21;;;;;;;1.83;0.60;;;28.80;41.50;;;;;;4958666;28;20035;-87
2022/05/13 12:46:53;;;;;;;4.53;0.93;;;28.70;41.80;;;;;;4957894;28;20031;-85
2022/05/13 12:49:26;;;;;;;2.45;0.90;;;28.80;42.40;;;;;;4955826;28;20023;-87
2022/05/13 12:52:04;;;;;;;3.78;0.80;;;28.40;42.30;;;;;;4953259;28;20074;-87
2022/05/13 12:54:40;;;;;;;2.45;0.70;;;28.00;43.50;;;;;;4968970;28;20034;-89
2022/05/13 12:57:16;;;;;;;2.63;1.05;;;27.80;43.40;;;;;;4942770;28;20039;-88
2022/05/13 12:59:47;;;;;;;5.25;0.77;;;27.90;42.40;;;;;;4955762;28;20039;-88
2022/05/13 13:02:13;;;;;;;3.33;0.90;;;27.90;44.10;;;;;;4956436;28;20027;-89
2022/05/13 13:04:56;;;;;;;6.80;0.90;;;27.70;45.00;;;;;;4956111;28;20053;-87
2022/05/13 13:07:25;;;;;;;2.95;0.80;;;27.50;43.50;;;;;;4951636;29;20032;-87
2022/05/13 13:09:51;;;;;;;3.03;0.90;;;27.30;43.70;;;;;;4957768;28;20058;-88
2022/05/13 13:12:41;;;;;;;3.42;0.90;;;27.00;45.50;;;;;;4962413;28;20454;-91
2022/05/13 13:15:19;;;;;;;1.88;0.82;;;27.00;46.60;;;;;;4971270;28;20043;-88
2022/05/13 13:18:03;;;;;;;2.83;0.90;;;27.10;46.30;;;;;;4955772;29;20039;-87
2022/05/13 13:20:31;;;;;;;4.30;0.98;;;27.20;44.70;;;;;;4954570;28;20031;-88
2022/05/13 13:23:05;;;;;;;4.25;0.90;;;27.40;43.40;;;;;;4947338;29;20028;-86
2022/05/13 13:25:37;;;;;;;2.72;1.02;;;27.50;45.20;;;;;;4954900;28;20031;-87
2022/05/13 13:28:07;;;;;;;2.08;0.88;;;27.40;44.50;;;;;;4955719;28;20027;-88
2022/05/13 13:30:33;;;;;;;3.87;1.10;;;27.40;45.10;;;;;;4953876;28;20027;-88
2022/05/13 13:33:00;;;;;;;5.10;0.93;;;27.40;46.50;;;;;;4956124;29;20020;-86
2022/05/13 13:35:42;;;;;;;1.35;0.80;;;27.20;45.10;;;;;;4954906;28;20059;-88
2022/05/13 13:38:11;;;;;;;5.10;1.20;;;27.00;45.50;;;;;;4951068;29;20031;-88
2022/05/13 13:40:43;;;;;;;3.60;1.05;;;27.00;45.80;;;;;;4945351;28;20431;-87
2022/05/13 13:43:27;;;;;;;2.20;0.90;;;27.10;46.80;;;;;;4936396;29;20023;-89